createdAt,value
2024-01-31T00:02:16.564Z,8.05
2024-01-31T00:05:22.206Z,4.25
2024-01-31T00:08:29.857Z,3.80
2024-01-31T00:11:38.002Z,6.60
2024-01-31T00:14:47.160Z,6.45
2024-01-31T00:17:56.182Z,3.22
2024-01-31T00:21:03.777Z,4.30
2024-01-31T00:24:11.248Z,5.10
2024-01-31T00:27:18.813Z,7.20
2024-01-31T00:30:24.323Z,5.38
2024-01-31T00:33:34.518Z,3.10
2024-01-31T00:36:40.041Z,4.35
2024-01-31T00:39:51.182Z,6.00
2024-01-31T00:42:56.687Z,5.60
2024-01-31T00:46:07.424Z,2.10
2024-01-31T00:49:18.578Z,6.38
2024-01-31T00:52:26.853Z,3.80
2024-01-31T00:55:32.376Z,5.18
2024-01-31T00:58:39.960Z,5.95
2024-01-31T01:01:45.565Z,6.55
2024-01-31T01:05:15.695Z,7.50
2024-01-31T01:08:21.245Z,8.57
2024-01-31T01:11:28.846Z,1.90
2024-01-31T01:14:36.498Z,7.72
2024-01-31T01:17:44.066Z,4.05
2024-01-31T01:20:52.399Z,4.38
2024-01-31T01:23:59.858Z,3.90
2024-01-31T01:27:06.450Z,6.35
2024-01-31T01:30:15.634Z,6.10
2024-01-31T01:33:21.369Z,4.25
2024-01-31T01:36:31.889Z,6.07
2024-01-31T01:39:38.590Z,5.43
2024-01-31T01:42:46.418Z,6.95
2024-01-31T01:45:52.664Z,7.32
2024-01-31T01:49:02.191Z,3.50
2024-01-31T01:52:14.082Z,6.25
2024-01-31T01:55:22.181Z,5.63
2024-01-31T01:58:28.458Z,6.25
2024-01-31T02:01:36.412Z,5.57
2024-01-31T02:04:42.531Z,6.53
2024-01-31T02:07:53.022Z,9.07
2024-01-31T02:10:59.234Z,6.45
2024-01-31T02:14:14.913Z,3.05
2024-01-31T02:17:20.403Z,4.63
2024-01-31T02:20:29.023Z,1.85
2024-01-31T02:23:37.144Z,3.83
2024-01-31T02:26:44.660Z,2.50
2024-01-31T02:29:50.245Z,3.88
2024-01-31T02:32:58.154Z,6.05
2024-01-31T02:36:03.762Z,4.10
2024-01-31T02:39:13.903Z,2.65
2024-01-31T02:42:19.817Z,2.60
2024-01-31T02:45:29.038Z,3.03
2024-01-31T02:48:34.830Z,4.25
2024-01-31T02:51:42.320Z,5.75
2024-01-31T02:54:52.604Z,3.33
2024-01-31T02:58:00.213Z,6.82
2024-01-31T03:01:09.582Z,6.55
2024-01-31T03:04:17.267Z,3.15
2024-01-31T03:07:22.815Z,8.35
2024-01-31T03:10:33.994Z,3.65
2024-01-31T03:13:39.651Z,3.45
2024-01-31T03:16:47.211Z,3.03
2024-01-31T03:19:52.912Z,3.53
2024-01-31T03:23:00.460Z,7.35
2024-01-31T03:26:08.908Z,2.90
2024-01-31T03:29:16.517Z,4.00
2024-01-31T03:32:22.086Z,1.27
2024-01-31T03:35:29.925Z,2.50
2024-01-31T03:38:35.480Z,6.93
2024-01-31T03:41:50.659Z,4.97
2024-01-31T03:44:56.135Z,2.90
2024-01-31T03:48:03.769Z,3.78
2024-01-31T03:51:09.297Z,4.78
2024-01-31T03:54:16.987Z,4.78
2024-01-31T03:57:25.047Z,2.28
2024-01-31T04:00:32.479Z,2.42
2024-01-31T04:03:41.012Z,2.08
2024-01-31T04:06:48.779Z,5.10
2024-01-31T04:09:54.312Z,3.67
2024-01-31T04:13:04.464Z,6.15
2024-01-31T04:16:10.802Z,3.75
2024-01-31T04:19:18.411Z,2.25
2024-01-31T04:22:24.105Z,2.13
2024-01-31T04:25:31.639Z,9.43
2024-01-31T04:28:39.848Z,4.38
2024-01-31T04:31:47.592Z,2.88
2024-01-31T04:34:53.187Z,2.35
2024-01-31T04:38:00.669Z,3.65
2024-01-31T04:41:06.671Z,4.57
2024-01-31T04:44:16.805Z,1.75
2024-01-31T04:47:23.798Z,3.42
2024-01-31T04:50:31.441Z,5.22
2024-01-31T04:53:36.946Z,1.20
2024-01-31T04:56:44.495Z,3.00
2024-01-31T04:59:54.625Z,5.68
2024-01-31T05:03:03.250Z,4.00
2024-01-31T05:06:08.900Z,5.78
2024-01-31T05:09:16.373Z,6.50
2024-01-31T05:12:21.810Z,7.95
2024-01-31T05:15:32.638Z,4.80
2024-01-31T05:18:38.585Z,6.32
2024-01-31T05:21:49.300Z,6.35
2024-01-31T05:24:54.904Z,4.90
2024-01-31T05:28:02.575Z,7.78
2024-01-31T05:31:10.961Z,2.85
2024-01-31T05:34:18.598Z,3.15
2024-01-31T05:37:24.140Z,6.75
2024-01-31T05:40:31.701Z,4.10
2024-01-31T05:43:37.257Z,12.93
2024-01-31T05:46:49.129Z,6.93
2024-01-31T05:49:54.713Z,10.63
2024-01-31T05:53:08.296Z,7.00
2024-01-31T05:56:13.867Z,3.13
2024-01-31T05:59:21.399Z,4.47
2024-01-31T06:02:29.606Z,10.65
2024-01-31T06:05:37.127Z,4.68
2024-01-31T06:08:42.713Z,4.57
2024-01-31T06:11:50.242Z,4.78
2024-01-31T06:14:55.856Z,5.80
2024-01-31T06:18:06.126Z,6.25
2024-01-31T06:21:11.650Z,2.53
2024-01-31T06:24:19.156Z,7.75
2024-01-31T06:27:24.664Z,7.10
2024-01-31T06:30:42.217Z,6.07
2024-01-31T06:33:50.355Z,6.03
2024-01-31T06:36:59.928Z,6.40
2024-01-31T06:40:05.762Z,11.75
2024-01-31T06:43:13.469Z,7.53
2024-01-31T06:46:20.440Z,7.43
2024-01-31T06:49:30.667Z,9.48
2024-01-31T06:52:36.281Z,7.22
2024-01-31T06:55:43.853Z,6.15
2024-01-31T06:58:49.856Z,12.85
2024-01-31T07:01:57.389Z,6.82
2024-01-31T07:05:05.699Z,10.02
2024-01-31T07:08:13.295Z,4.15
2024-01-31T07:11:19.018Z,10.73
2024-01-31T07:14:26.580Z,10.32
2024-01-31T07:17:32.446Z,18.20
2024-01-31T07:20:42.544Z,5.40
2024-01-31T07:23:48.096Z,9.20
2024-01-31T07:26:55.619Z,5.10
2024-01-31T07:30:01.215Z,8.10
2024-01-31T07:33:09.158Z,7.93
2024-01-31T07:36:17.490Z,4.88
2024-01-31T07:39:25.017Z,8.90
2024-01-31T07:42:30.617Z,11.52
2024-01-31T07:45:38.053Z,5.55
2024-01-31T07:48:43.650Z,4.85
2024-01-31T07:51:58.274Z,13.07
2024-01-31T07:55:04.826Z,5.97
2024-01-31T07:58:12.312Z,12.75
2024-01-31T08:01:17.929Z,8.70
2024-01-31T08:04:25.506Z,7.10
2024-01-31T08:07:33.809Z,8.65
2024-01-31T08:10:41.490Z,8.02
2024-01-31T08:13:47.502Z,8.18
2024-01-31T08:16:55.542Z,6.63
2024-01-31T08:20:01.195Z,4.80
2024-01-31T08:23:11.693Z,12.73
2024-01-31T08:26:20.497Z,8.23
2024-01-31T08:29:28.353Z,5.20
2024-01-31T08:32:36.299Z,7.18
2024-01-31T08:35:45.601Z,8.50
2024-01-31T08:38:53.675Z,6.15
2024-01-31T08:42:01.382Z,6.72
2024-01-31T08:45:07.584Z,20.83
2024-01-31T08:48:15.211Z,14.98
2024-01-31T08:51:20.695Z,9.70
2024-01-31T08:54:32.345Z,8.93
2024-01-31T08:57:37.900Z,7.20
2024-01-31T09:00:45.918Z,7.80
2024-01-31T09:03:55.350Z,6.18
2024-01-31T09:07:02.985Z,5.03
2024-01-31T09:10:11.849Z,8.93
2024-01-31T09:13:19.542Z,3.40
2024-01-31T09:16:25.097Z,7.68
2024-01-31T09:19:32.752Z,4.20
2024-01-31T09:22:40.272Z,5.80
2024-01-31T09:25:50.675Z,8.57
2024-01-31T09:28:56.318Z,8.63
2024-01-31T09:32:04.736Z,6.68
2024-01-31T09:35:11.199Z,2.92
2024-01-31T09:38:18.768Z,7.35
2024-01-31T09:41:27.472Z,8.50
2024-01-31T09:44:36.155Z,10.10
2024-01-31T09:47:43.878Z,10.45
2024-01-31T09:50:52.048Z,8.05
2024-01-31T09:54:02.616Z,5.30
2024-01-31T09:57:13.003Z,3.78
2024-01-31T10:00:19.247Z,5.60
2024-01-31T10:03:26.936Z,10.93
2024-01-31T10:06:32.616Z,15.30
2024-01-31T10:09:40.257Z,9.82
2024-01-31T10:12:48.409Z,8.63
2024-01-31T10:15:55.998Z,11.00
2024-01-31T10:19:02.009Z,7.05
2024-01-31T10:22:10.025Z,6.78
2024-01-31T10:25:18.655Z,6.03
2024-01-31T10:28:29.070Z,8.05
2024-01-31T10:31:36.438Z,13.18
2024-01-31T10:34:55.199Z,7.68
2024-01-31T10:38:11.539Z,8.55
2024-01-31T10:41:20.768Z,12.80
2024-01-31T10:44:29.401Z,9.90
2024-01-31T10:47:37.113Z,8.52
2024-01-31T10:50:44.213Z,7.68
2024-01-31T10:53:53.088Z,6.20
2024-01-31T10:56:59.615Z,11.32
2024-01-31T11:00:13.123Z,8.48
2024-01-31T11:03:19.956Z,6.63
2024-01-31T11:06:28.222Z,7.85
2024-01-31T11:09:33.746Z,6.57
2024-01-31T11:12:41.198Z,7.95
2024-01-31T11:15:49.354Z,7.18
2024-01-31T11:18:57.014Z,6.53
2024-01-31T11:22:04.363Z,9.02
2024-01-31T11:25:12.408Z,10.57
2024-01-31T11:28:20.374Z,4.72
2024-01-31T11:31:30.717Z,15.57
2024-01-31T11:34:36.414Z,7.30
2024-01-31T11:37:44.182Z,12.27
2024-01-31T11:40:49.979Z,9.55
2024-01-31T11:43:57.574Z,5.85
2024-01-31T11:47:06.256Z,8.18
2024-01-31T11:50:14.216Z,9.80
2024-01-31T11:53:19.989Z,9.90
2024-01-31T11:56:27.962Z,9.13
2024-01-31T11:59:33.775Z,6.78
2024-01-31T12:02:44.252Z,8.93
2024-01-31T12:05:59.481Z,10.80
2024-01-31T12:09:07.657Z,6.68
2024-01-31T12:12:13.586Z,9.32
2024-01-31T12:15:21.429Z,7.30
2024-01-31T12:18:29.747Z,7.75
2024-01-31T12:21:44.659Z,8.45
2024-01-31T12:27:58.927Z,7.05
2024-01-31T12:31:04.403Z,11.98
2024-01-31T12:34:14.589Z,9.65
2024-01-31T12:37:20.146Z,7.28
2024-01-31T12:40:27.764Z,11.65
2024-01-31T12:43:33.809Z,12.07
2024-01-31T12:46:42.797Z,10.38
2024-01-31T12:49:50.985Z,14.73
2024-01-31T12:52:58.494Z,10.23
2024-01-31T12:56:04.024Z,9.35
2024-01-31T12:59:11.541Z,10.70
2024-01-31T13:02:17.035Z,11.98
2024-01-31T13:05:27.725Z,11.30
2024-01-31T13:08:36.726Z,12.07
2024-01-31T13:11:44.909Z,13.02
2024-01-31T13:14:50.521Z,12.15
2024-01-31T13:17:58.396Z,17.33
2024-01-31T13:21:06.898Z,14.63
2024-01-31T13:24:14.619Z,11.25
2024-01-31T13:27:20.248Z,15.93
2024-01-31T13:30:27.799Z,18.20
2024-01-31T13:33:33.475Z,16.23
2024-01-31T13:36:43.862Z,11.63
2024-01-31T13:39:49.960Z,12.57
2024-01-31T13:42:57.652Z,14.50
2024-01-31T13:46:03.139Z,11.27
2024-01-31T13:49:12.663Z,13.65
2024-01-31T13:52:20.741Z,12.57
2024-01-31T13:55:28.865Z,13.20
2024-01-31T13:58:34.347Z,15.13
2024-01-31T14:01:41.784Z,15.32
2024-01-31T14:04:47.373Z,17.23
2024-01-31T14:07:57.451Z,14.82
2024-01-31T14:11:03.702Z,16.25
2024-01-31T14:14:11.217Z,15.20
2024-01-31T14:17:16.793Z,15.50
2024-01-31T14:20:24.284Z,14.38
2024-01-31T14:23:42.975Z,13.77
2024-01-31T14:26:52.198Z,15.02
2024-01-31T14:29:57.842Z,16.70
2024-01-31T14:33:05.619Z,19.58
2024-01-31T14:36:13.169Z,18.23
2024-01-31T14:39:23.467Z,17.42
2024-01-31T14:42:28.980Z,20.35
2024-01-31T14:45:36.656Z,18.92
2024-01-31T14:48:42.452Z,18.80
2024-01-31T14:51:50.001Z,22.48
2024-01-31T14:54:58.357Z,19.35
2024-01-31T14:58:06.695Z,21.70
2024-01-31T15:01:12.456Z,20.40
2024-01-31T15:04:20.239Z,18.88
2024-01-31T15:07:27.532Z,19.73
2024-01-31T15:10:39.700Z,18.50
2024-01-31T15:13:45.251Z,23.95
2024-01-31T15:16:52.749Z,19.65
2024-01-31T15:19:58.412Z,18.83
2024-01-31T15:23:06.874Z,19.25
2024-01-31T15:26:15.144Z,18.27
2024-01-31T15:29:22.637Z,18.67
2024-01-31T15:32:28.217Z,16.02
2024-01-31T15:35:37.666Z,16.55
2024-01-31T15:38:50.198Z,16.00
2024-01-31T15:42:00.530Z,16.38
2024-01-31T15:45:06.300Z,15.75
2024-01-31T15:48:14.389Z,16.67
2024-01-31T15:51:20.865Z,18.88
2024-01-31T15:54:33.064Z,17.25
2024-01-31T15:57:42.138Z,15.40
2024-01-31T16:00:49.700Z,15.40
2024-01-31T16:03:55.282Z,15.15
2024-01-31T16:07:04.081Z,12.48
2024-01-31T16:10:10.733Z,13.25
2024-01-31T16:13:20.881Z,17.75
2024-01-31T16:16:26.435Z,16.77
2024-01-31T16:19:34.134Z,12.23
2024-01-31T16:22:40.895Z,10.65
2024-01-31T16:25:48.394Z,10.85
2024-01-31T16:28:57.074Z,10.48
2024-01-31T16:32:04.699Z,10.10
2024-01-31T16:35:10.987Z,10.15
2024-01-31T16:38:19.186Z,6.43
2024-01-31T16:41:26.187Z,6.80
2024-01-31T16:44:36.433Z,9.98
2024-01-31T16:47:42.069Z,10.23
2024-01-31T16:50:49.685Z,12.52
2024-01-31T16:53:55.252Z,10.02
2024-01-31T16:57:05.231Z,8.23
2024-01-31T17:00:16.188Z,7.82
2024-01-31T17:03:24.110Z,6.57
2024-01-31T17:06:29.814Z,7.68
2024-01-31T17:09:37.740Z,9.50
2024-01-31T17:12:44.638Z,8.27
2024-01-31T17:15:55.391Z,9.05
2024-01-31T17:19:01.278Z,6.53
2024-01-31T17:22:08.985Z,8.70
2024-01-31T17:25:14.677Z,10.30
2024-01-31T17:28:22.261Z,4.28
2024-01-31T17:31:30.387Z,9.82
2024-01-31T17:34:38.013Z,8.05
2024-01-31T17:37:43.652Z,5.10
2024-01-31T17:40:52.053Z,13.15
2024-01-31T17:43:57.560Z,11.60
2024-01-31T17:47:09.120Z,8.25
2024-01-31T17:50:14.773Z,10.05
2024-01-31T17:53:22.702Z,4.80
2024-01-31T17:56:28.286Z,7.38
2024-01-31T17:59:35.892Z,6.10
2024-01-31T18:02:44.158Z,5.85
2024-01-31T18:05:53.342Z,6.72
2024-01-31T18:08:59.081Z,9.20
2024-01-31T18:12:15.829Z,8.65
2024-01-31T18:15:28.704Z,8.68
2024-01-31T18:18:39.120Z,9.45
2024-01-31T18:21:44.809Z,6.15
2024-01-31T18:24:52.393Z,7.68
2024-01-31T18:27:59.937Z,6.13
2024-01-31T18:31:07.716Z,13.82
2024-01-31T18:34:16.255Z,5.07
2024-01-31T18:37:23.988Z,4.85
2024-01-31T18:40:32.034Z,5.80
2024-01-31T18:43:40.393Z,7.53
2024-01-31T18:46:45.896Z,11.05
2024-01-31T18:49:56.101Z,5.60
2024-01-31T18:53:01.681Z,8.27
2024-01-31T18:56:09.856Z,7.68
2024-01-31T18:59:15.325Z,5.22
2024-01-31T19:02:23.033Z,10.02
2024-01-31T19:05:31.230Z,10.15
2024-01-31T19:08:38.772Z,10.93
2024-01-31T19:11:44.608Z,11.55
2024-01-31T19:14:53.096Z,8.07
2024-01-31T19:17:58.727Z,9.30
2024-01-31T19:21:09.036Z,11.43
2024-01-31T19:24:14.812Z,6.72
2024-01-31T19:27:22.391Z,12.68
2024-01-31T19:30:28.063Z,8.63
2024-01-31T19:33:36.750Z,9.77
2024-01-31T19:36:45.070Z,11.57
2024-01-31T19:39:52.585Z,11.65
2024-01-31T19:42:58.790Z,8.02
2024-01-31T19:46:06.479Z,5.68
2024-01-31T19:49:12.085Z,4.78
2024-01-31T19:52:22.643Z,8.73
2024-01-31T19:55:28.070Z,6.65
2024-01-31T19:58:35.585Z,5.68
2024-01-31T20:01:41.401Z,6.45
2024-01-31T20:04:49.033Z,7.40
2024-01-31T20:07:58.979Z,8.43
2024-01-31T20:11:06.882Z,9.30
2024-01-31T20:14:12.383Z,5.47
2024-01-31T20:17:20.822Z,6.55
2024-01-31T20:20:26.593Z,8.80
2024-01-31T20:23:36.806Z,9.25
2024-01-31T20:26:42.472Z,9.90
2024-01-31T20:29:50.100Z,12.50
2024-01-31T20:32:55.995Z,8.35
2024-01-31T20:36:03.692Z,10.73
2024-01-31T20:39:12.518Z,9.73
2024-01-31T20:42:20.040Z,6.78
2024-01-31T20:45:25.921Z,6.13
2024-01-31T20:48:40.397Z,6.88
2024-01-31T20:51:46.997Z,8.32
2024-01-31T20:54:57.178Z,12.93
2024-01-31T20:58:03.769Z,6.95
2024-01-31T21:01:11.302Z,10.82
2024-01-31T21:04:16.921Z,13.32
2024-01-31T21:07:24.482Z,11.75
2024-01-31T21:10:32.854Z,13.80
2024-01-31T21:13:40.470Z,20.75
2024-01-31T21:16:46.157Z,8.00
2024-01-31T21:19:53.769Z,11.63
2024-01-31T21:22:59.367Z,8.40
2024-01-31T21:26:09.640Z,7.28
2024-01-31T21:29:15.794Z,11.40
2024-01-31T21:32:23.366Z,14.10
2024-01-31T21:35:30.506Z,6.78
2024-01-31T21:38:38.067Z,7.68
2024-01-31T21:41:46.284Z,9.00
2024-01-31T21:44:54.238Z,10.30
2024-01-31T21:47:59.856Z,8.13
2024-01-31T21:51:09.017Z,8.68
2024-01-31T21:54:16.799Z,11.70
2024-01-31T21:57:26.982Z,9.52
2024-01-31T22:00:32.511Z,12.98
2024-01-31T22:03:50.058Z,8.32
2024-01-31T22:07:05.003Z,12.13
2024-01-31T22:10:14.290Z,9.75
2024-01-31T22:13:22.457Z,10.80
2024-01-31T22:16:29.944Z,12.38
2024-01-31T22:19:35.552Z,16.42
2024-01-31T22:22:43.093Z,11.63
2024-01-31T22:25:48.648Z,14.70
2024-01-31T22:28:58.868Z,12.85
2024-01-31T22:32:06.085Z,15.50
2024-01-31T22:35:13.765Z,12.40
2024-01-31T22:38:19.372Z,9.38
2024-01-31T22:41:26.815Z,12.02
2024-01-31T22:44:35.102Z,23.40
2024-01-31T22:47:42.867Z,16.17
2024-01-31T22:50:48.416Z,12.65
2024-01-31T22:53:55.952Z,8.60
2024-01-31T22:57:01.487Z,8.07
2024-01-31T23:00:14.650Z,14.85
2024-01-31T23:03:25.900Z,15.45
2024-01-31T23:06:33.765Z,13.63
2024-01-31T23:09:39.927Z,12.38
2024-01-31T23:12:47.959Z,15.80
2024-01-31T23:15:58.122Z,15.57
2024-01-31T23:19:05.869Z,16.13
2024-01-31T23:22:11.515Z,13.55
2024-01-31T23:25:19.300Z,16.05
2024-01-31T23:28:24.843Z,15.07
2024-01-31T23:31:34.941Z,17.23
2024-01-31T23:34:40.519Z,9.15
2024-01-31T23:37:47.989Z,14.35
2024-01-31T23:40:53.516Z,16.48
2024-01-31T23:44:01.038Z,18.13
2024-01-31T23:47:09.183Z,12.13
2024-01-31T23:50:16.741Z,19.73
2024-01-31T23:53:22.366Z,13.02
2024-01-31T23:56:30.253Z,9.18
2024-01-31T23:59:36.224Z,13.00
